Pickens County Information

FAA: JZP - ICAO: KJZP

Pickens County (Airport) Location

State Georgia
County Pickens
City Jasper
Pickens County (Airport) is 2 miles southwest of Jasper, GA.
Latitude 34-27-12.5000N
Longitude 084-27-26.0000W
Elevation 1,535ft

Pickens County METARs

METAR KJZP 172055Z AUTO 34005KT 10SM CLR 26/10 A3006 RMK AO2 T02590095
Altimeter 30.06"
Temperature 25.9°C (78.6°F)
Wind 340° at 5KT
Clouds Skies are clear.
Visibility 10.0mi
Time observed: 2022-05-17T20:55:00Z

Pickens County (Airport) Details

Status Operational
Activation August 1975
Ownership Public
Usage Public
Chart ATLANTA
ATC on-site No
Beacon schedule sunset-sunrise
Beacon color clear green

Pickens County (Airport) Contacts

Owner PICKENS COUNTY
Owner address 1266 EAST CHURCH STREET, SUITE 201, JASPER, GA 30143
Owner phone 706-253-8817
Manager W. H. TORBETT
Manager address 243 TORBETT RD, FORSYTH, GA 31029
Manager phone 770-474-2080

Pickens County Radio Frequencies

Pickens County (Airport) Radio Frequencies

UNICOM 122.725
Common traffic advisory frequency (CTAF) 122.725